Hadley, United Kingdom
Current Conditions -  °F | °C
As of 10:50 AM on Tuesday 21 Oct 2014 (Local Time) from EGOS Reporting Station
Few Clouds Few Clouds  
Wind Chill: 50°   Ceiling: Unl
Heat Index: 50°   Visibility: 6mi
Dew Point: 37°   Wind: 22mph
Humidity: 62%   Direction: 280°W
Pressure: 29.62"   Gusts: 33mph
Location:  52.7°N, 2.48°W
Report Text: EGOS 210950Z 28019G29KT 9999 FEW025CB 10/03 Q1003 BLU TEMPO 7000 SHRA SCT024CB WHT
Loading
Personal Weather Stations






























Interactive Weather Map New forecast layout! Learn more

10-Day Weather Forecast

Advertisements
Track Severe Weather on mobile